sensor_id;sensor_type;location;lat;lon;timestamp;pressure;altitude;pressure_sealevel;temperature;humidity
7962;BME280;4026;43.652;24.906;2023-03-22T00:00:55;98896.97;;;10.49;100.00
7962;BME280;4026;43.652;24.906;2023-03-22T00:03:22;98903.47;;;10.42;100.00
7962;BME280;4026;43.652;24.906;2023-03-22T00:05:55;98892.09;;;10.46;100.00
7962;BME280;4026;43.652;24.906;2023-03-22T00:08:24;98896.03;;;10.39;100.00
7962;BME280;4026;43.652;24.906;2023-03-22T00:10:51;98898.34;;;10.31;100.00
7962;BME280;4026;43.652;24.906;2023-03-22T00:13:17;98881.84;;;10.35;100.00
7962;BME280;4026;43.652;24.906;2023-03-22T00:15:44;98878.63;;;10.33;100.00
7962;BME280;4026;43.652;24.906;2023-03-22T00:18:13;98879.94;;;10.26;100.00
7962;BME280;4026;43.652;24.906;2023-03-22T00:20:46;98878.94;;;10.28;100.00
7962;BME280;4026;43.652;24.906;2023-03-22T00:23:13;98880.19;;;10.23;100.00
7962;BME280;4026;43.652;24.906;2023-03-22T00:25:41;98875.19;;;10.21;100.00
7962;BME280;4026;43.652;24.906;2023-03-22T00:28:09;98876.69;;;10.12;100.00
7962;BME280;4026;43.652;24.906;2023-03-22T00:30:36;98877.59;;;10.11;100.00
7962;BME280;4026;43.652;24.906;2023-03-22T00:33:03;98870.97;;;10.09;100.00
7962;BME280;4026;43.652;24.906;2023-03-22T00:35:30;98874.13;;;10.12;100.00
7962;BME280;4026;43.652;24.906;2023-03-22T00:37:57;98876.59;;;10.25;100.00
7962;BME280;4026;43.652;24.906;2023-03-22T00:40:30;98876.91;;;10.20;100.00
7962;BME280;4026;43.652;24.906;2023-03-22T00:42:59;98875.06;;;10.23;100.00
7962;BME280;4026;43.652;24.906;2023-03-22T00:45:26;98874.13;;;10.24;100.00
7962;BME280;4026;43.652;24.906;2023-03-22T00:47:53;98872.94;;;10.05;100.00
7962;BME280;4026;43.652;24.906;2023-03-22T00:50:20;98866.56;;;10.11;100.00
7962;BME280;4026;43.652;24.906;2023-03-22T00:52:47;98876.34;;;10.17;100.00
7962;BME280;4026;43.652;24.906;2023-03-22T00:55:14;98878.78;;;10.18;100.00
7962;BME280;4026;43.652;24.906;2023-03-22T00:57:41;98878.34;;;10.25;100.00
7962;BME280;4026;43.652;24.906;2023-03-22T01:00:10;98884.34;;;10.12;100.00
7962;BME280;4026;43.652;24.906;2023-03-22T01:02:38;98882.47;;;10.14;100.00
7962;BME280;4026;43.652;24.906;2023-03-22T01:05:06;98883.66;;;10.10;100.00
7962;BME280;4026;43.652;24.906;2023-03-22T01:07:33;98881.09;;;10.10;100.00
7962;BME280;4026;43.652;24.906;2023-03-22T01:10:03;98881.03;;;9.88;100.00
7962;BME280;4026;43.652;24.906;2023-03-22T01:12:30;98883.25;;;9.92;100.00
7962;BME280;4026;43.652;24.906;2023-03-22T01:14:57;98883.69;;;9.86;100.00
7962;BME280;4026;43.652;24.906;2023-03-22T01:17:25;98874.66;;;9.93;100.00
7962;BME280;4026;43.652;24.906;2023-03-22T01:19:52;98877.13;;;9.95;100.00
7962;BME280;4026;43.652;24.906;2023-03-22T01:22:19;98873.88;;;10.04;100.00
7962;BME280;4026;43.652;24.906;2023-03-22T01:24:47;98876.91;;;10.20;100.00
7962;BME280;4026;43.652;24.906;2023-03-22T01:27:14;98876.28;;;10.30;100.00
7962;BME280;4026;43.652;24.906;2023-03-22T01:29:41;98880.41;;;10.19;100.00
7962;BME280;4026;43.652;24.906;2023-03-22T01:32:08;98874.97;;;10.24;100.00
7962;BME280;4026;43.652;24.906;2023-03-22T01:34:36;98877.09;;;10.30;100.00
7962;BME280;4026;43.652;24.906;2023-03-22T01:37:03;98873.84;;;10.28;100.00
7962;BME280;4026;43.652;24.906;2023-03-22T01:39:30;98878.59;;;10.44;100.00
7962;BME280;4026;43.652;24.906;2023-03-22T01:41:57;98884.88;;;10.29;100.00
7962;BME280;4026;43.652;24.906;2023-03-22T01:44:28;98873.03;;;10.28;100.00
7962;BME280;4026;43.652;24.906;2023-03-22T01:46:55;98870.94;;;10.33;100.00
7962;BME280;4026;43.652;24.906;2023-03-22T01:49:24;98868.84;;;10.38;100.00
7962;BME280;4026;43.652;24.906;2023-03-22T01:51:56;98875.13;;;10.45;100.00
7962;BME280;4026;43.652;24.906;2023-03-22T01:54:29;98868.84;;;10.60;100.00
7962;BME280;4026;43.652;24.906;2023-03-22T01:57:01;98863.50;;;10.63;100.00
7962;BME280;4026;43.652;24.906;2023-03-22T01:59:29;98864.91;;;10.68;100.00
7962;BME280;4026;43.652;24.906;2023-03-22T02:01:57;98867.34;;;10.69;100.00
7962;BME280;4026;43.652;24.906;2023-03-22T02:04:31;98859.44;;;10.61;100.00
7962;BME280;4026;43.652;24.906;2023-03-22T02:07:02;98853.75;;;10.57;100.00
7962;BME280;4026;43.652;24.906;2023-03-22T02:09:34;98859.09;;;10.54;100.00
7962;BME280;4026;43.652;24.906;2023-03-22T02:12:11;98859.78;;;10.45;100.00
7962;BME280;4026;43.652;24.906;2023-03-22T02:14:54;98861.41;;;10.35;100.00
7962;BME280;4026;43.652;24.906;2023-03-22T02:17:30;98859.31;;;10.29;100.00
7962;BME280;4026;43.652;24.906;2023-03-22T02:29:16;98869.53;;;10.29;100.00
7962;BME280;4026;43.652;24.906;2023-03-22T02:35:16;98874.19;;;10.35;100.00
7962;BME280;4026;43.652;24.906;2023-03-22T02:40:50;98873.28;;;10.36;100.00
7962;BME280;4026;43.652;24.906;2023-03-22T02:43:28;98871.84;;;10.32;100.00
7962;BME280;4026;43.652;24.906;2023-03-22T02:46:04;98873.03;;;10.28;100.00
7962;BME280;4026;43.652;24.906;2023-03-22T02:48:35;98867.31;;;10.24;100.00
7962;BME280;4026;43.652;24.906;2023-03-22T02:51:09;98871.81;;;10.20;100.00
7962;BME280;4026;43.652;24.906;2023-03-22T02:53:43;98873.22;;;10.25;100.00
7962;BME280;4026;43.652;24.906;2023-03-22T02:56:18;98871.81;;;10.20;100.00
7962;BME280;4026;43.652;24.906;2023-03-22T02:58:48;98864.84;;;10.23;100.00
7962;BME280;4026;43.652;24.906;2023-03-22T03:01:20;98874.13;;;10.12;100.00
7962;BME280;4026;43.652;24.906;2023-03-22T03:03:51;98874.94;;;10.13;100.00
7962;BME280;4026;43.652;24.906;2023-03-22T03:06:21;98878.88;;;10.17;100.00
7962;BME280;4026;43.652;24.906;2023-03-22T03:08:50;98882.47;;;10.14;100.00
7962;BME280;4026;43.652;24.906;2023-03-22T03:11:20;98878.06;;;10.05;100.00
7962;BME280;4026;43.652;24.906;2023-03-22T03:13:47;98886.16;;;9.99;100.00
7962;BME280;4026;43.652;24.906;2023-03-22T03:16:15;98884.19;;;10.03;100.00
7962;BME280;4026;43.652;24.906;2023-03-22T03:18:48;98890.75;;;9.83;100.00
7962;BME280;4026;43.652;24.906;2023-03-22T03:21:30;98887.78;;;10.00;100.00
7962;BME280;4026;43.652;24.906;2023-03-22T03:24:09;98889.31;;;10.03;100.00
7962;BME280;4026;43.652;24.906;2023-03-22T03:26:46;98891.38;;;9.86;100.00
7962;BME280;4026;43.652;24.906;2023-03-22T03:29:21;98893.47;;;9.68;100.00
7962;BME280;4026;43.652;24.906;2023-03-22T03:31:54;98898.13;;;9.63;100.00
7962;BME280;4026;43.652;24.906;2023-03-22T03:34:30;98897.19;;;9.64;100.00
7962;BME280;4026;43.652;24.906;2023-03-22T03:37:03;98897.47;;;9.72;100.00
7962;BME280;4026;43.652;24.906;2023-03-22T03:39:33;98892.66;;;9.92;100.00
7962;BME280;4026;43.652;24.906;2023-03-22T03:42:05;98890.13;;;10.03;100.00
7962;BME280;4026;43.652;24.906;2023-03-22T03:44:34;98895.94;;;10.05;100.00
7962;BME280;4026;43.652;24.906;2023-03-22T03:47:01;98895.94;;;10.05;100.00
7962;BME280;4026;43.652;24.906;2023-03-22T03:49:29;98906.59;;;9.99;100.00
7962;BME280;4026;43.652;24.906;2023-03-22T03:51:56;98893.81;;;9.99;100.00
7962;BME280;4026;43.652;24.906;2023-03-22T03:54:25;98904.91;;;10.22;100.00
7962;BME280;4026;43.652;24.906;2023-03-22T03:56:52;98902.91;;;10.14;100.00
7962;BME280;4026;43.652;24.906;2023-03-22T03:59:20;98904.56;;;10.15;100.00
7962;BME280;4026;43.652;24.906;2023-03-22T04:01:47;98897.59;;;10.17;100.00
7962;BME280;4026;43.652;24.906;2023-03-22T04:04:17;98907.34;;;10.24;100.00
7962;BME280;4026;43.652;24.906;2023-03-22T04:06:51;98909.06;;;10.12;100.00
7962;BME280;4026;43.652;24.906;2023-03-22T04:09:18;98911.38;;;10.15;100.00
7962;BME280;4026;43.652;24.906;2023-03-22T04:11:45;98910.59;;;10.14;100.00
7962;BME280;4026;43.652;24.906;2023-03-22T04:14:12;98911.28;;;10.16;100.00
7962;BME280;4026;43.652;24.906;2023-03-22T04:16:41;98923.34;;;10.14;100.00
7962;BME280;4026;43.652;24.906;2023-03-22T04:19:07;98914.56;;;10.18;100.00
7962;BME280;4026;43.652;24.906;2023-03-22T04:21:34;98916.66;;;10.25;100.00
7962;BME280;4026;43.652;24.906;2023-03-22T04:24:01;98932.50;;;10.30;100.00
7962;BME280;4026;43.652;24.906;2023-03-22T04:26:28;98926.41;;;10.19;100.00
7962;BME280;4026;43.652;24.906;2023-03-22T04:28:55;98921.28;;;10.19;100.00
7962;BME280;4026;43.652;24.906;2023-03-22T04:31:23;98927.44;;;10.17;100.00
7962;BME280;4026;43.652;24.906;2023-03-22T04:33:51;98926.63;;;10.16;100.00
7962;BME280;4026;43.652;24.906;2023-03-22T04:36:21;98925.13;;;10.25;100.00
7962;BME280;4026;43.652;24.906;2023-03-22T04:38:48;98925.06;;;10.38;100.00
7962;BME280;4026;43.652;24.906;2023-03-22T04:41:15;98935.97;;;10.29;100.00
7962;BME280;4026;43.652;24.906;2023-03-22T04:43:43;98938.41;;;10.30;100.00
7962;BME280;4026;43.652;24.906;2023-03-22T04:46:12;98937.38;;;10.33;100.00
7962;BME280;4026;43.652;24.906;2023-03-22T04:48:40;98942.72;;;10.30;100.00
7962;BME280;4026;43.652;24.906;2023-03-22T04:51:09;98940.47;;;10.25;100.00
7962;BME280;4026;43.652;24.906;2023-03-22T04:53:36;98945.16;;;10.31;100.00
7962;BME280;4026;43.652;24.906;2023-03-22T04:56:05;98941.34;;;10.48;100.00
7962;BME280;4026;43.652;24.906;2023-03-22T04:58:33;98947.84;;;10.41;100.00
7962;BME280;4026;43.652;24.906;2023-03-22T05:01:00;98945.06;;;10.44;100.00
7962;BME280;4026;43.652;24.906;2023-03-22T05:03:27;98949.81;;;10.37;100.00
7962;BME280;4026;43.652;24.906;2023-03-22T05:05:55;98944.47;;;10.40;100.00
7962;BME280;4026;43.652;24.906;2023-03-22T05:08:25;98951.09;;;10.43;100.00
7962;BME280;4026;43.652;24.906;2023-03-22T05:10:53;98951.81;;;10.45;100.00
7962;BME280;4026;43.652;24.906;2023-03-22T05:13:21;98957.84;;;10.44;100.00
7962;BME280;4026;43.652;24.906;2023-03-22T05:15:49;98957.53;;;10.25;100.00
7962;BME280;4026;43.652;24.906;2023-03-22T05:18:18;98952.22;;;10.28;100.00
7962;BME280;4026;43.652;24.906;2023-03-22T05:20:45;98956.56;;;10.14;100.00
7962;BME280;4026;43.652;24.906;2023-03-22T05:23:13;98956.56;;;10.14;100.00
7962;BME280;4026;43.652;24.906;2023-03-22T05:25:45;98955.44;;;10.18;100.00
7962;BME280;4026;43.652;24.906;2023-03-22T05:28:12;98958.00;;;10.18;100.00
7962;BME280;4026;43.652;24.906;2023-03-22T05:30:40;98958.78;;;10.19;100.00
7962;BME280;4026;43.652;24.906;2023-03-22T05:33:07;98964.22;;;10.14;100.00
7962;BME280;4026;43.652;24.906;2023-03-22T05:35:38;98965.44;;;10.22;100.00
7962;BME280;4026;43.652;24.906;2023-03-22T05:38:06;98973.31;;;10.18;100.00
7962;BME280;4026;43.652;24.906;2023-03-22T05:40:33;98967.97;;;10.22;100.00
7962;BME280;4026;43.652;24.906;2023-03-22T05:43:01;98968.47;;;10.27;100.00
7962;BME280;4026;43.652;24.906;2023-03-22T05:45:28;98980.97;;;10.18;100.00
7962;BME280;4026;43.652;24.906;2023-03-22T05:47:56;98979.25;;;10.19;100.00
7962;BME280;4026;43.652;24.906;2023-03-22T05:50:23;98981.16;;;10.28;100.00
7962;BME280;4026;43.652;24.906;2023-03-22T05:52:50;98990.94;;;10.34;100.00
7962;BME280;4026;43.652;24.906;2023-03-22T05:55:18;98995.75;;;10.26;100.00
7962;BME280;4026;43.652;24.906;2023-03-22T05:57:45;98995.88;;;10.25;100.00
7962;BME280;4026;43.652;24.906;2023-03-22T06:00:18;98997.72;;;10.23;100.00
7962;BME280;4026;43.652;24.906;2023-03-22T06:02:46;98996.31;;;10.18;100.00
7962;BME280;4026;43.652;24.906;2023-03-22T06:05:14;99002.91;;;10.10;100.00
7962;BME280;4026;43.652;24.906;2023-03-22T06:07:42;99007.88;;;10.11;100.00
7962;BME280;4026;43.652;24.906;2023-03-22T06:10:11;99003.47;;;10.13;100.00
7962;BME280;4026;43.652;24.906;2023-03-22T06:12:38;99012.28;;;10.09;100.00
7962;BME280;4026;43.652;24.906;2023-03-22T06:15:07;99011.88;;;10.15;100.00
7962;BME280;4026;43.652;24.906;2023-03-22T06:17:35;99015.97;;;10.05;100.00
7962;BME280;4026;43.652;24.906;2023-03-22T06:20:03;99014.16;;;10.07;100.00
7962;BME280;4026;43.652;24.906;2023-03-22T06:22:35;99016.19;;;10.02;100.00
7962;BME280;4026;43.652;24.906;2023-03-22T06:25:02;99018.47;;;9.94;100.00
7962;BME280;4026;43.652;24.906;2023-03-22T06:27:29;99024.09;;;9.99;100.00
7962;BME280;4026;43.652;24.906;2023-03-22T06:29:56;99020.34;;;9.92;100.00
7962;BME280;4026;43.652;24.906;2023-03-22T06:32:23;99022.72;;;9.82;100.00
7962;BME280;4026;43.652;24.906;2023-03-22T06:34:52;99038.31;;;9.90;100.00
7962;BME280;4026;43.652;24.906;2023-03-22T06:37:19;99035.25;;;9.98;100.00
7962;BME280;4026;43.652;24.906;2023-03-22T06:39:46;99035.44;;;9.95;100.00
7962;BME280;4026;43.652;24.906;2023-03-22T06:42:13;99036.47;;;9.92;100.00
7962;BME280;4026;43.652;24.906;2023-03-22T06:44:40;99038.91;;;9.94;100.00
7962;BME280;4026;43.652;24.906;2023-03-22T06:47:09;99039.41;;;9.99;100.00
7962;BME280;4026;43.652;24.906;2023-03-22T06:49:37;99051.53;;;10.08;100.00
7962;BME280;4026;43.652;24.906;2023-03-22T06:52:05;99042.69;;;10.01;100.00
7962;BME280;4026;43.652;24.906;2023-03-22T06:54:32;99045.22;;;10.01;100.00
7962;BME280;4026;43.652;24.906;2023-03-22T06:56:59;99043.53;;;9.89;100.00
7962;BME280;4026;43.652;24.906;2023-03-22T06:59:26;99044.44;;;9.88;100.00
7962;BME280;4026;43.652;24.906;2023-03-22T07:01:53;99048.91;;;9.97;100.00
7962;BME280;4026;43.652;24.906;2023-03-22T07:04:20;99048.69;;;10.00;100.00
7962;BME280;4026;43.652;24.906;2023-03-22T07:06:48;99058.69;;;10.03;100.00
7962;BME280;4026;43.652;24.906;2023-03-22T07:09:17;99051.81;;;9.80;100.00
7962;BME280;4026;43.652;24.906;2023-03-22T07:11:44;99054.63;;;10.01;100.00
7962;BME280;4026;43.652;24.906;2023-03-22T07:14:11;99055.25;;;9.91;100.00
7962;BME280;4026;43.652;24.906;2023-03-22T07:16:37;99059.50;;;9.80;100.00
7962;BME280;4026;43.652;24.906;2023-03-22T07:19:04;99062.03;;;9.80;100.00
7962;BME280;4026;43.652;24.906;2023-03-22T07:21:31;99059.56;;;9.91;100.00
7962;BME280;4026;43.652;24.906;2023-03-22T07:23:59;99057.44;;;9.85;100.00
7962;BME280;4026;43.652;24.906;2023-03-22T07:26:27;99064.66;;;9.91;100.00
7962;BME280;4026;43.652;24.906;2023-03-22T07:28:55;99061.81;;;9.83;100.00
7962;BME280;4026;43.652;24.906;2023-03-22T07:31:22;99063.91;;;9.78;100.00
7962;BME280;4026;43.652;24.906;2023-03-22T07:33:49;99066.50;;;9.89;100.00
7962;BME280;4026;43.652;24.906;2023-03-22T07:36:16;99071.66;;;9.76;100.00
7962;BME280;4026;43.652;24.906;2023-03-22T07:38:48;99062.03;;;9.80;100.00
7962;BME280;4026;43.652;24.906;2023-03-22T07:41:15;99074.66;;;9.94;100.00
7962;BME280;4026;43.652;24.906;2023-03-22T07:43:44;99071.00;;;9.98;100.00
7962;BME280;4026;43.652;24.906;2023-03-22T07:46:11;99071.22;;;9.95;100.00
7962;BME280;4026;43.652;24.906;2023-03-22T07:48:38;99071.47;;;10.03;100.00
7962;BME280;4026;43.652;24.906;2023-03-22T07:51:05;99074.22;;;10.00;100.00
7962;BME280;4026;43.652;24.906;2023-03-22T07:53:32;99073.03;;;9.93;100.00
7962;BME280;4026;43.652;24.906;2023-03-22T07:56:01;99069.41;;;10.08;100.00
7962;BME280;4026;43.652;24.906;2023-03-22T07:58:28;99067.50;;;9.99;100.00
7962;BME280;4026;43.652;24.906;2023-03-22T08:00:57;99073.56;;;9.98;100.00
7962;BME280;4026;43.652;24.906;2023-03-22T08:03:28;99063.38;;;10.09;100.00
7962;BME280;4026;43.652;24.906;2023-03-22T08:05:59;99070.19;;;10.22;100.00
7962;BME280;4026;43.652;24.906;2023-03-22T08:08:28;99077.28;;;10.05;100.00
7962;BME280;4026;43.652;24.906;2023-03-22T08:10:55;99079.56;;;9.97;100.00
7962;BME280;4026;43.652;24.906;2023-03-22T08:13:22;99076.69;;;10.02;100.00
7962;BME280;4026;43.652;24.906;2023-03-22T08:15:48;99083.81;;;10.09;100.00
7962;BME280;4026;43.652;24.906;2023-03-22T08:18:17;99076.31;;;9.95;100.00
7962;BME280;4026;43.652;24.906;2023-03-22T08:20:44;99071.00;;;9.98;100.00
7962;BME280;4026;43.652;24.906;2023-03-22T08:23:11;99068.28;;;10.12;100.00
7962;BME280;4026;43.652;24.906;2023-03-22T08:25:40;99073.81;;;10.06;100.00
7962;BME280;4026;43.652;24.906;2023-03-22T08:28:07;99075.06;;;10.01;100.00
7962;BME280;4026;43.652;24.906;2023-03-22T08:30:35;99074.22;;;10.00;100.00
7962;BME280;4026;43.652;24.906;2023-03-22T08:33:02;99076.09;;;9.98;100.00
7962;BME280;4026;43.652;24.906;2023-03-22T08:35:32;99074.84;;;10.04;100.00
7962;BME280;4026;43.652;24.906;2023-03-22T08:37:59;99087.50;;;10.05;100.00
7962;BME280;4026;43.652;24.906;2023-03-22T08:40:26;99087.50;;;10.05;100.00
7962;BME280;4026;43.652;24.906;2023-03-22T08:42:53;99084.75;;;10.08;100.00
7962;BME280;4026;43.652;24.906;2023-03-22T08:45:19;99085.66;;;10.07;100.00
7962;BME280;4026;43.652;24.906;2023-03-22T08:47:46;99096.03;;;10.17;100.00
7962;BME280;4026;43.652;24.906;2023-03-22T08:50:13;99086.84;;;10.14;100.00
7962;BME280;4026;43.652;24.906;2023-03-22T08:52:41;99094.03;;;10.09;100.00
7962;BME280;4026;43.652;24.906;2023-03-22T08:55:09;99089.69;;;9.98;100.00
7962;BME280;4026;43.652;24.906;2023-03-22T08:57:35;99094.88;;;9.97;100.00
7962;BME280;4026;43.652;24.906;2023-03-22T09:00:04;99095.28;;;10.04;100.00
7962;BME280;4026;43.652;24.906;2023-03-22T09:02:35;99095.66;;;10.10;100.00
7962;BME280;4026;43.652;24.906;2023-03-22T09:05:04;99100.50;;;10.02;100.00
7962;BME280;4026;43.652;24.906;2023-03-22T09:07:31;99096.47;;;9.87;100.00
7962;BME280;4026;43.652;24.906;2023-03-22T09:09:59;99085.53;;;9.85;100.00
7962;BME280;4026;43.652;24.906;2023-03-22T09:12:26;99094.53;;;9.78;100.00
7962;BME280;4026;43.652;24.906;2023-03-22T09:14:54;99089.22;;;9.81;100.00
7962;BME280;4026;43.652;24.906;2023-03-22T09:17:20;99087.19;;;9.73;100.00
7962;BME280;4026;43.652;24.906;2023-03-22T09:19:47;99100.75;;;9.73;100.00
7962;BME280;4026;43.652;24.906;2023-03-22T09:22:14;99094.34;;;9.68;100.00
7962;BME280;4026;43.652;24.906;2023-03-22T09:24:41;99099.00;;;9.87;100.00
7962;BME280;4026;43.652;24.906;2023-03-22T09:27:10;99096.75;;;9.95;100.00
7962;BME280;4026;43.652;24.906;2023-03-22T09:29:36;99102.13;;;10.03;100.00
7962;BME280;4026;43.652;24.906;2023-03-22T09:32:04;99104.19;;;9.98;100.00
7962;BME280;4026;43.652;24.906;2023-03-22T09:34:31;99101.44;;;10.01;100.00
7962;BME280;4026;43.652;24.906;2023-03-22T09:36:58;99102.13;;;10.03;100.00
7962;BME280;4026;43.652;24.906;2023-03-22T09:39:27;99095.31;;;9.91;100.00
7962;BME280;4026;43.652;24.906;2023-03-22T09:41:56;99096.31;;;10.01;100.00
7962;BME280;4026;43.652;24.906;2023-03-22T09:44:30;99096.91;;;10.05;100.00
7962;BME280;4026;43.652;24.906;2023-03-22T09:47:00;99091.91;;;10.03;100.00
7962;BME280;4026;43.652;24.906;2023-03-22T09:49:33;99097.50;;;10.08;100.00
7962;BME280;4026;43.652;24.906;2023-03-22T09:52:04;99101.34;;;10.27;100.00
7962;BME280;4026;43.652;24.906;2023-03-22T09:54:33;99096.38;;;10.12;100.00
7962;BME280;4026;43.652;24.906;2023-03-22T09:57:04;99099.91;;;10.23;100.00
7962;BME280;4026;43.652;24.906;2023-03-22T09:59:39;99095.28;;;10.04;100.00
7962;BME280;4026;43.652;24.906;2023-03-22T10:02:28;99098.28;;;10.22;100.00
7962;BME280;4026;43.652;24.906;2023-03-22T10:05:03;99103.00;;;10.28;100.00
7962;BME280;4026;43.652;24.906;2023-03-22T10:07:48;99105.34;;;10.31;100.00
7962;BME280;4026;43.652;24.906;2023-03-22T10:10:19;99105.38;;;10.42;100.00
7962;BME280;4026;43.652;24.906;2023-03-22T10:12:52;99115.41;;;10.45;100.00
7962;BME280;4026;43.652;24.906;2023-03-22T10:15:31;99110.50;;;10.42;100.00
7962;BME280;4026;43.652;24.906;2023-03-22T10:17:59;99114.69;;;10.43;100.00
7962;BME280;4026;43.652;24.906;2023-03-22T10:20:32;99110.50;;;10.42;100.00
7962;BME280;4026;43.652;24.906;2023-03-22T10:23:05;99111.56;;;10.27;100.00
7962;BME280;4026;43.652;24.906;2023-03-22T10:25:36;99111.63;;;10.38;100.00
7962;BME280;4026;43.652;24.906;2023-03-22T10:28:14;99111.47;;;10.52;100.00
7962;BME280;4026;43.652;24.906;2023-03-22T10:30:43;99110.44;;;10.55;100.00
7962;BME280;4026;43.652;24.906;2023-03-22T10:33:20;99109.28;;;10.35;100.00
7962;BME280;4026;43.652;24.906;2023-03-22T10:35:50;99118.31;;;10.52;100.00
7962;BME280;4026;43.652;24.906;2023-03-22T10:38:21;99112.19;;;10.54;100.00
7962;BME280;4026;43.652;24.906;2023-03-22T10:40:50;99106.63;;;10.60;100.00
7962;BME280;4026;43.652;24.906;2023-03-22T10:43:21;99111.03;;;10.58;100.00
7962;BME280;4026;43.652;24.906;2023-03-22T10:45:53;99113.34;;;10.50;100.00
7962;BME280;4026;43.652;24.906;2023-03-22T10:48:26;99115.19;;;10.48;100.00
7962;BME280;4026;43.652;24.906;2023-03-22T10:50:54;99110.78;;;10.50;100.00
7962;BME280;4026;43.652;24.906;2023-03-22T10:53:27;99101.69;;;10.46;100.00
7962;BME280;4026;43.652;24.906;2023-03-22T10:55:56;99108.63;;;10.44;100.00
7962;BME280;4026;43.652;24.906;2023-03-22T10:58:28;99102.72;;;10.43;100.00
7962;BME280;4026;43.652;24.906;2023-03-22T11:00:58;99105.53;;;10.52;100.00
7962;BME280;4026;43.652;24.906;2023-03-22T11:03:28;99112.88;;;10.56;100.00
7962;BME280;4026;43.652;24.906;2023-03-22T11:06:01;99105.22;;;10.56;100.00
7962;BME280;4026;43.652;24.906;2023-03-22T11:08:38;99103.69;;;10.54;100.00
7962;BME280;4026;43.652;24.906;2023-03-22T11:11:05;99099.13;;;10.46;100.00
7962;BME280;4026;43.652;24.906;2023-03-22T11:13:34;99095.66;;;10.47;100.00
7962;BME280;4026;43.652;24.906;2023-03-22T11:16:03;99093.25;;;10.57;100.00
7962;BME280;4026;43.652;24.906;2023-03-22T11:18:31;99095.91;;;10.55;100.00
7962;BME280;4026;43.652;24.906;2023-03-22T11:21:04;99085.31;;;10.49;100.00
7962;BME280;4026;43.652;24.906;2023-03-22T11:23:32;99097.78;;;10.53;100.00
7962;BME280;4026;43.652;24.906;2023-03-22T11:26:07;99096.56;;;10.46;100.00
7962;BME280;4026;43.652;24.906;2023-03-22T11:28:39;99094.75;;;10.35;100.00
7962;BME280;4026;43.652;24.906;2023-03-22T11:31:09;99090.88;;;10.42;100.00
7962;BME280;4026;43.652;24.906;2023-03-22T11:33:37;99091.69;;;10.43;100.00
7962;BME280;4026;43.652;24.906;2023-03-22T11:36:15;99085.81;;;10.54;100.00
7962;BME280;4026;43.652;24.906;2023-03-22T11:38:43;99086.13;;;10.49;100.00
7962;BME280;4026;43.652;24.906;2023-03-22T11:41:15;99078.94;;;10.54;100.00
7962;BME280;4026;43.652;24.906;2023-03-22T11:43:47;99083.03;;;10.57;100.00
7962;BME280;4026;43.652;24.906;2023-03-22T11:46:16;99079.88;;;10.64;100.00
7962;BME280;4026;43.652;24.906;2023-03-22T11:48:46;99082.56;;;10.63;100.00
7962;BME280;4026;43.652;24.906;2023-03-22T11:51:15;99078.50;;;10.60;100.00
7962;BME280;4026;43.652;24.906;2023-03-22T11:53:44;99082.44;;;10.53;100.00
7962;BME280;4026;43.652;24.906;2023-03-22T11:56:16;99084.06;;;10.54;100.00
7962;BME280;4026;43.652;24.906;2023-03-22T11:58:54;99078.28;;;10.63;100.00
7962;BME280;4026;43.652;24.906;2023-03-22T12:01:33;99076.22;;;10.69;100.00
7962;BME280;4026;43.652;24.906;2023-03-22T12:04:04;99077.00;;;10.69;100.00
7962;BME280;4026;43.652;24.906;2023-03-22T12:06:35;99078.66;;;10.81;100.00
7962;BME280;4026;43.652;24.906;2023-03-22T12:09:09;99082.97;;;10.81;100.00
7962;BME280;4026;43.652;24.906;2023-03-22T12:11:39;99079.47;;;10.71;100.00
7962;BME280;4026;43.652;24.906;2023-03-22T12:14:14;99081.53;;;10.65;100.00
7962;BME280;4026;43.652;24.906;2023-03-22T12:16:47;99079.09;;;10.64;100.00
7962;BME280;4026;43.652;24.906;2023-03-22T12:19:29;99079.72;;;10.79;100.00
7962;BME280;4026;43.652;24.906;2023-03-22T12:22:04;99084.13;;;10.77;100.00
7962;BME280;4026;43.652;24.906;2023-03-22T12:24:34;99085.03;;;10.76;100.00
7962;BME280;4026;43.652;24.906;2023-03-22T12:27:06;99074.13;;;10.74;100.00
7962;BME280;4026;43.652;24.906;2023-03-22T12:29:46;99083.91;;;10.80;100.00
7962;BME280;4026;43.652;24.906;2023-03-22T12:32:21;99088.34;;;10.89;100.00
7962;BME280;4026;43.652;24.906;2023-03-22T12:34:50;99083.22;;;10.89;100.00
7962;BME280;4026;43.652;24.906;2023-03-22T12:37:21;99083.31;;;10.87;100.00
7962;BME280;4026;43.652;24.906;2023-03-22T12:39:53;99077.84;;;10.81;100.00
7962;BME280;4026;43.652;24.906;2023-03-22T12:42:24;99078.78;;;10.80;100.00
7962;BME280;4026;43.652;24.906;2023-03-22T12:44:57;99077.59;;;10.73;100.00
7962;BME280;4026;43.652;24.906;2023-03-22T12:47:31;99076.22;;;10.69;100.00
7962;BME280;4026;43.652;24.906;2023-03-22T12:50:05;99079.69;;;10.68;100.00
7962;BME280;4026;43.652;24.906;2023-03-22T12:52:37;99073.19;;;10.75;100.00
7962;BME280;4026;43.652;24.906;2023-03-22T12:55:06;99080.19;;;10.84;100.00
7962;BME280;4026;43.652;24.906;2023-03-22T12:57:35;99081.63;;;10.88;100.00
7962;BME280;4026;43.652;24.906;2023-03-22T13:00:06;99079.50;;;10.93;100.00
7962;BME280;4026;43.652;24.906;2023-03-22T13:02:48;99077.69;;;11.06;100.00
7962;BME280;4026;43.652;24.906;2023-03-22T13:05:18;99072.81;;;11.15;100.00
7962;BME280;4026;43.652;24.906;2023-03-22T13:07:53;99077.00;;;11.27;100.00
7962;BME280;4026;43.652;24.906;2023-03-22T13:10:58;99080.28;;;11.29;100.00
7962;BME280;4026;43.652;24.906;2023-03-22T13:13:44;99085.16;;;11.32;100.00
7962;BME280;4026;43.652;24.906;2023-03-22T13:16:20;99083.03;;;11.37;100.00
7962;BME280;4026;43.652;24.906;2023-03-22T13:19:16;99081.66;;;11.44;100.00
7962;BME280;4026;43.652;24.906;2023-03-22T13:21:47;99072.56;;;11.40;100.00
7962;BME280;4026;43.652;24.906;2023-03-22T13:24:21;99060.25;;;11.45;100.00
7962;BME280;4026;43.652;24.906;2023-03-22T13:26:50;99065.03;;;11.39;100.00
7962;BME280;4026;43.652;24.906;2023-03-22T13:29:20;99073.03;;;11.34;100.00
7962;BME280;4026;43.652;24.906;2023-03-22T13:31:55;99073.97;;;11.22;100.00